sensor_id;sensor_type;location;lat;lon;timestamp;P1;durP1;ratioP1;P2;durP2;ratioP2
28724;SDS011;43472;48.980;9.646;2023-07-28T00:00:33;27.83;;;6.68;;
28724;SDS011;43472;48.980;9.646;2023-07-28T00:05:36;80.88;;;9.02;;
28724;SDS011;43472;48.980;9.646;2023-07-28T00:10:41;93.05;;;10.65;;
28724;SDS011;43472;48.980;9.646;2023-07-28T00:15:43;29.17;;;8.68;;
28724;SDS011;43472;48.980;9.646;2023-07-28T00:20:45;23.58;;;7.30;;
28724;SDS011;43472;48.980;9.646;2023-07-28T00:25:47;39.33;;;8.23;;
28724;SDS011;43472;48.980;9.646;2023-07-28T00:30:49;77.75;;;10.77;;
28724;SDS011;43472;48.980;9.646;2023-07-28T00:35:52;57.58;;;10.00;;
28724;SDS011;43472;48.980;9.646;2023-07-28T00:40:54;55.58;;;9.30;;
28724;SDS011;43472;48.980;9.646;2023-07-28T00:45:56;41.80;;;9.95;;
28724;SDS011;43472;48.980;9.646;2023-07-28T00:50:58;74.50;;;10.48;;
28724;SDS011;43472;48.980;9.646;2023-07-28T00:56:00;47.83;;;9.07;;
28724;SDS011;43472;48.980;9.646;2023-07-28T01:01:03;125.72;;;13.75;;
28724;SDS011;43472;48.980;9.646;2023-07-28T01:11:10;32.75;;;7.35;;
28724;SDS011;43472;48.980;9.646;2023-07-28T01:16:11;28.35;;;6.20;;
28724;SDS011;43472;48.980;9.646;2023-07-28T01:21:15;43.10;;;6.88;;
28724;SDS011;43472;48.980;9.646;2023-07-28T01:26:32;30.10;;;6.50;;
28724;SDS011;43472;48.980;9.646;2023-07-28T01:31:36;58.65;;;7.60;;
28724;SDS011;43472;48.980;9.646;2023-07-28T01:36:38;21.90;;;6.47;;
28724;SDS011;43472;48.980;9.646;2023-07-28T01:41:40;54.88;;;8.27;;
28724;SDS011;43472;48.980;9.646;2023-07-28T01:46:45;35.38;;;6.90;;
28724;SDS011;43472;48.980;9.646;2023-07-28T01:51:46;28.00;;;6.13;;
28724;SDS011;43472;48.980;9.646;2023-07-28T01:56:48;45.75;;;6.97;;
28724;SDS011;43472;48.980;9.646;2023-07-28T02:01:50;61.88;;;7.40;;
28724;SDS011;43472;48.980;9.646;2023-07-28T02:06:52;49.08;;;7.57;;
28724;SDS011;43472;48.980;9.646;2023-07-28T02:11:54;89.22;;;9.43;;
28724;SDS011;43472;48.980;9.646;2023-07-28T02:16:56;20.48;;;6.47;;
28724;SDS011;43472;48.980;9.646;2023-07-28T02:21:58;19.88;;;5.43;;
28724;SDS011;43472;48.980;9.646;2023-07-28T02:27:00;17.35;;;5.00;;
28724;SDS011;43472;48.980;9.646;2023-07-28T02:32:02;11.15;;;4.88;;
28724;SDS011;43472;48.980;9.646;2023-07-28T02:37:04;16.38;;;4.82;;
28724;SDS011;43472;48.980;9.646;2023-07-28T02:42:06;43.80;;;5.32;;
28724;SDS011;43472;48.980;9.646;2023-07-28T02:47:08;35.55;;;4.70;;
28724;SDS011;43472;48.980;9.646;2023-07-28T02:52:10;39.25;;;5.57;;
28724;SDS011;43472;48.980;9.646;2023-07-28T02:57:11;15.70;;;4.40;;
28724;SDS011;43472;48.980;9.646;2023-07-28T03:02:13;13.63;;;4.78;;
28724;SDS011;43472;48.980;9.646;2023-07-28T03:07:15;23.88;;;6.10;;
28724;SDS011;43472;48.980;9.646;2023-07-28T03:12:17;24.25;;;5.90;;
28724;SDS011;43472;48.980;9.646;2023-07-28T03:17:19;9.77;;;5.40;;
28724;SDS011;43472;48.980;9.646;2023-07-28T03:22:21;112.10;;;11.45;;
28724;SDS011;43472;48.980;9.646;2023-07-28T03:27:23;81.75;;;9.05;;
28724;SDS011;43472;48.980;9.646;2023-07-28T03:32:25;22.23;;;7.38;;
28724;SDS011;43472;48.980;9.646;2023-07-28T03:37:27;72.22;;;8.43;;
28724;SDS011;43472;48.980;9.646;2023-07-28T03:42:29;51.97;;;7.68;;
28724;SDS011;43472;48.980;9.646;2023-07-28T03:47:31;127.57;;;9.25;;
28724;SDS011;43472;48.980;9.646;2023-07-28T03:52:33;78.68;;;8.00;;
28724;SDS011;43472;48.980;9.646;2023-07-28T03:57:35;81.72;;;8.77;;
28724;SDS011;43472;48.980;9.646;2023-07-28T04:02:37;89.18;;;9.30;;
28724;SDS011;43472;48.980;9.646;2023-07-28T04:07:39;35.15;;;7.22;;
28724;SDS011;43472;48.980;9.646;2023-07-28T04:12:40;52.28;;;7.57;;
28724;SDS011;43472;48.980;9.646;2023-07-28T04:17:42;33.22;;;7.28;;
28724;SDS011;43472;48.980;9.646;2023-07-28T04:22:44;25.75;;;7.07;;
28724;SDS011;43472;48.980;9.646;2023-07-28T04:27:46;6.85;;;5.63;;
28724;SDS011;43472;48.980;9.646;2023-07-28T04:32:48;13.32;;;5.68;;
28724;SDS011;43472;48.980;9.646;2023-07-28T04:37:50;8.07;;;5.30;;
28724;SDS011;43472;48.980;9.646;2023-07-28T04:42:51;8.63;;;5.65;;
28724;SDS011;43472;48.980;9.646;2023-07-28T04:47:54;6.80;;;4.90;;
28724;SDS011;43472;48.980;9.646;2023-07-28T04:52:57;11.05;;;5.10;;
28724;SDS011;43472;48.980;9.646;2023-07-28T04:57:59;8.63;;;4.95;;
28724;SDS011;43472;48.980;9.646;2023-07-28T05:03:01;12.60;;;4.85;;
28724;SDS011;43472;48.980;9.646;2023-07-28T05:08:03;9.70;;;5.47;;
28724;SDS011;43472;48.980;9.646;2023-07-28T05:13:04;7.72;;;4.65;;
28724;SDS011;43472;48.980;9.646;2023-07-28T05:18:06;6.13;;;4.13;;
28724;SDS011;43472;48.980;9.646;2023-07-28T05:23:08;8.20;;;4.57;;
28724;SDS011;43472;48.980;9.646;2023-07-28T05:28:10;13.48;;;4.60;;
28724;SDS011;43472;48.980;9.646;2023-07-28T05:33:12;7.80;;;4.13;;
28724;SDS011;43472;48.980;9.646;2023-07-28T05:38:14;8.25;;;5.38;;
28724;SDS011;43472;48.980;9.646;2023-07-28T05:43:16;8.18;;;5.65;;
28724;SDS011;43472;48.980;9.646;2023-07-28T05:48:18;10.20;;;6.20;;
28724;SDS011;43472;48.980;9.646;2023-07-28T05:53:20;7.03;;;5.05;;
28724;SDS011;43472;48.980;9.646;2023-07-28T05:58:22;7.28;;;4.60;;
28724;SDS011;43472;48.980;9.646;2023-07-28T06:03:24;19.83;;;6.75;;
28724;SDS011;43472;48.980;9.646;2023-07-28T06:08:27;17.35;;;7.60;;
28724;SDS011;43472;48.980;9.646;2023-07-28T06:13:29;10.90;;;7.60;;
28724;SDS011;43472;48.980;9.646;2023-07-28T06:18:31;11.02;;;7.22;;
28724;SDS011;43472;48.980;9.646;2023-07-28T06:23:33;13.60;;;6.57;;
28724;SDS011;43472;48.980;9.646;2023-07-28T06:28:35;9.82;;;6.65;;
28724;SDS011;43472;48.980;9.646;2023-07-28T06:33:39;14.05;;;6.30;;
28724;SDS011;43472;48.980;9.646;2023-07-28T06:38:40;8.30;;;6.30;;
28724;SDS011;43472;48.980;9.646;2023-07-28T06:43:44;9.43;;;5.80;;
28724;SDS011;43472;48.980;9.646;2023-07-28T06:48:46;9.18;;;6.50;;
28724;SDS011;43472;48.980;9.646;2023-07-28T06:53:48;13.13;;;6.32;;
28724;SDS011;43472;48.980;9.646;2023-07-28T06:58:50;9.13;;;6.55;;
28724;SDS011;43472;48.980;9.646;2023-07-28T07:04:04;8.70;;;5.45;;
28724;SDS011;43472;48.980;9.646;2023-07-28T07:09:07;9.57;;;5.50;;
28724;SDS011;43472;48.980;9.646;2023-07-28T07:14:09;8.20;;;6.50;;
28724;SDS011;43472;48.980;9.646;2023-07-28T07:19:12;6.82;;;4.53;;
28724;SDS011;43472;48.980;9.646;2023-07-28T07:24:15;5.40;;;3.67;;
28724;SDS011;43472;48.980;9.646;2023-07-28T07:29:16;6.85;;;3.70;;
28724;SDS011;43472;48.980;9.646;2023-07-28T07:34:18;5.05;;;3.90;;
28724;SDS011;43472;48.980;9.646;2023-07-28T07:39:21;5.57;;;2.85;;
28724;SDS011;43472;48.980;9.646;2023-07-28T07:44:23;3.25;;;2.65;;
28724;SDS011;43472;48.980;9.646;2023-07-28T07:49:25;6.45;;;2.50;;
28724;SDS011;43472;48.980;9.646;2023-07-28T07:54:27;3.97;;;2.63;;
28724;SDS011;43472;48.980;9.646;2023-07-28T07:59:29;4.07;;;2.40;;
28724;SDS011;43472;48.980;9.646;2023-07-28T08:04:36;2.63;;;2.22;;
28724;SDS011;43472;48.980;9.646;2023-07-28T08:09:38;2.88;;;2.40;;
28724;SDS011;43472;48.980;9.646;2023-07-28T08:14:40;2.00;;;1.80;;
28724;SDS011;43472;48.980;9.646;2023-07-28T08:19:42;3.30;;;2.65;;
28724;SDS011;43472;48.980;9.646;2023-07-28T08:24:44;5.60;;;2.90;;
28724;SDS011;43472;48.980;9.646;2023-07-28T08:29:45;4.32;;;2.55;;
28724;SDS011;43472;48.980;9.646;2023-07-28T08:34:48;3.38;;;2.35;;
28724;SDS011;43472;48.980;9.646;2023-07-28T08:39:49;6.97;;;3.50;;
28724;SDS011;43472;48.980;9.646;2023-07-28T08:44:51;2.35;;;1.88;;
28724;SDS011;43472;48.980;9.646;2023-07-28T08:49:53;2.92;;;2.25;;
28724;SDS011;43472;48.980;9.646;2023-07-28T08:54:55;4.85;;;2.97;;
28724;SDS011;43472;48.980;9.646;2023-07-28T08:59:58;2.75;;;1.90;;
28724;SDS011;43472;48.980;9.646;2023-07-28T09:05:02;5.07;;;1.90;;
28724;SDS011;43472;48.980;9.646;2023-07-28T09:10:05;4.07;;;2.00;;
28724;SDS011;43472;48.980;9.646;2023-07-28T09:15:08;2.47;;;2.10;;
28724;SDS011;43472;48.980;9.646;2023-07-28T09:20:16;7.70;;;5.38;;
28724;SDS011;43472;48.980;9.646;2023-07-28T09:25:19;6.63;;;3.22;;
28724;SDS011;43472;48.980;9.646;2023-07-28T09:30:22;7.80;;;2.60;;
28724;SDS011;43472;48.980;9.646;2023-07-28T09:35:25;2.40;;;1.92;;
28724;SDS011;43472;48.980;9.646;2023-07-28T09:40:27;2.72;;;1.58;;
28724;SDS011;43472;48.980;9.646;2023-07-28T09:45:30;2.67;;;1.88;;
28724;SDS011;43472;48.980;9.646;2023-07-28T09:50:40;7.10;;;1.70;;
28724;SDS011;43472;48.980;9.646;2023-07-28T09:55:42;2.80;;;1.90;;
28724;SDS011;43472;48.980;9.646;2023-07-28T10:00:45;3.70;;;1.60;;
28724;SDS011;43472;48.980;9.646;2023-07-28T10:05:48;1.30;;;1.20;;
28724;SDS011;43472;48.980;9.646;2023-07-28T10:10:50;2.58;;;1.17;;
28724;SDS011;43472;48.980;9.646;2023-07-28T10:15:54;1.83;;;1.25;;
28724;SDS011;43472;48.980;9.646;2023-07-28T10:20:56;1.30;;;1.17;;
28724;SDS011;43472;48.980;9.646;2023-07-28T10:26:15;5.57;;;1.40;;
28724;SDS011;43472;48.980;9.646;2023-07-28T10:31:32;4.20;;;2.65;;
28724;SDS011;43472;48.980;9.646;2023-07-28T10:36:35;1.70;;;1.10;;
28724;SDS011;43472;48.980;9.646;2023-07-28T10:41:38;2.33;;;1.55;;
28724;SDS011;43472;48.980;9.646;2023-07-28T10:46:43;1.05;;;0.90;;
28724;SDS011;43472;48.980;9.646;2023-07-28T10:51:45;2.65;;;0.98;;
28724;SDS011;43472;48.980;9.646;2023-07-28T10:56:47;4.00;;;1.10;;
28724;SDS011;43472;48.980;9.646;2023-07-28T11:01:49;1.90;;;1.00;;
28724;SDS011;43472;48.980;9.646;2023-07-28T11:06:51;3.40;;;2.00;;
28724;SDS011;43472;48.980;9.646;2023-07-28T11:11:53;5.72;;;2.22;;
28724;SDS011;43472;48.980;9.646;2023-07-28T11:16:55;1.60;;;1.50;;
28724;SDS011;43472;48.980;9.646;2023-07-28T11:21:57;3.88;;;2.15;;
28724;SDS011;43472;48.980;9.646;2023-07-28T11:26:59;2.33;;;1.40;;
28724;SDS011;43472;48.980;9.646;2023-07-28T11:32:04;1.50;;;0.98;;
28724;SDS011;43472;48.980;9.646;2023-07-28T11:37:06;1.45;;;1.35;;
28724;SDS011;43472;48.980;9.646;2023-07-28T11:42:10;1.40;;;1.15;;
28724;SDS011;43472;48.980;9.646;2023-07-28T11:47:19;0.80;;;0.73;;
28724;SDS011;43472;48.980;9.646;2023-07-28T11:52:21;2.55;;;1.00;;
28724;SDS011;43472;48.980;9.646;2023-07-28T11:57:24;1.75;;;1.25;;
28724;SDS011;43472;48.980;9.646;2023-07-28T12:02:32;3.42;;;1.13;;
28724;SDS011;43472;48.980;9.646;2023-07-28T12:07:35;6.85;;;1.30;;
28724;SDS011;43472;48.980;9.646;2023-07-28T12:12:46;5.72;;;1.33;;
28724;SDS011;43472;48.980;9.646;2023-07-28T12:23:10;1.50;;;0.95;;
28724;SDS011;43472;48.980;9.646;2023-07-28T12:28:15;2.80;;;1.00;;
28724;SDS011;43472;48.980;9.646;2023-07-28T12:33:20;2.15;;;1.30;;
28724;SDS011;43472;48.980;9.646;2023-07-28T12:38:23;8.00;;;1.10;;
28724;SDS011;43472;48.980;9.646;2023-07-28T12:43:28;1.08;;;0.80;;
28724;SDS011;43472;48.980;9.646;2023-07-28T12:48:34;3.03;;;0.95;;
28724;SDS011;43472;48.980;9.646;2023-07-28T12:53:48;1.27;;;0.98;;
28724;SDS011;43472;48.980;9.646;2023-07-28T12:58:50;5.78;;;1.50;;
28724;SDS011;43472;48.980;9.646;2023-07-28T13:03:55;1.42;;;0.85;;
28724;SDS011;43472;48.980;9.646;2023-07-28T13:08:57;6.30;;;4.40;;
28724;SDS011;43472;48.980;9.646;2023-07-28T13:14:02;1.30;;;1.17;;
28724;SDS011;43472;48.980;9.646;2023-07-28T13:19:04;3.17;;;2.15;;
28724;SDS011;43472;48.980;9.646;2023-07-28T13:24:06;1.88;;;1.27;;
28724;SDS011;43472;48.980;9.646;2023-07-28T13:29:08;1.73;;;1.10;;
28724;SDS011;43472;48.980;9.646;2023-07-28T13:34:10;1.38;;;1.27;;
28724;SDS011;43472;48.980;9.646;2023-07-28T13:39:12;1.60;;;1.48;;
28724;SDS011;43472;48.980;9.646;2023-07-28T13:44:14;5.35;;;1.30;;
28724;SDS011;43472;48.980;9.646;2023-07-28T13:49:16;1.77;;;1.30;;
28724;SDS011;43472;48.980;9.646;2023-07-28T13:54:21;2.17;;;1.30;;
28724;SDS011;43472;48.980;9.646;2023-07-28T13:59:24;2.53;;;1.25;;
28724;SDS011;43472;48.980;9.646;2023-07-28T14:04:25;1.40;;;1.30;;
28724;SDS011;43472;48.980;9.646;2023-07-28T14:09:32;2.20;;;1.67;;
28724;SDS011;43472;48.980;9.646;2023-07-28T14:14:33;2.53;;;1.92;;
28724;SDS011;43472;48.980;9.646;2023-07-28T14:19:38;3.05;;;2.28;;
28724;SDS011;43472;48.980;9.646;2023-07-28T14:24:43;6.07;;;3.45;;
28724;SDS011;43472;48.980;9.646;2023-07-28T14:34:48;4.40;;;2.30;;
28724;SDS011;43472;48.980;9.646;2023-07-28T14:39:50;31.70;;;21.10;;
28724;SDS011;43472;48.980;9.646;2023-07-28T14:44:52;4.40;;;3.20;;
28724;SDS011;43472;48.980;9.646;2023-07-28T14:49:55;3.17;;;2.47;;
28724;SDS011;43472;48.980;9.646;2023-07-28T14:54:58;6.78;;;2.88;;
28724;SDS011;43472;48.980;9.646;2023-07-28T14:59:59;5.60;;;3.00;;
28724;SDS011;43472;48.980;9.646;2023-07-28T15:05:02;2.95;;;2.58;;
28724;SDS011;43472;48.980;9.646;2023-07-28T15:10:05;6.15;;;2.92;;
28724;SDS011;43472;48.980;9.646;2023-07-28T15:15:08;7.53;;;2.70;;
28724;SDS011;43472;48.980;9.646;2023-07-28T15:20:11;10.65;;;6.35;;
28724;SDS011;43472;48.980;9.646;2023-07-28T15:25:14;6.93;;;4.28;;
28724;SDS011;43472;48.980;9.646;2023-07-28T15:30:18;6.10;;;3.88;;
28724;SDS011;43472;48.980;9.646;2023-07-28T15:35:22;3.50;;;2.63;;
28724;SDS011;43472;48.980;9.646;2023-07-28T15:40:23;5.05;;;3.30;;
28724;SDS011;43472;48.980;9.646;2023-07-28T15:45:25;8.57;;;2.72;;
28724;SDS011;43472;48.980;9.646;2023-07-28T15:50:30;5.88;;;3.60;;
28724;SDS011;43472;48.980;9.646;2023-07-28T15:55:34;4.25;;;2.80;;
28724;SDS011;43472;48.980;9.646;2023-07-28T16:00:37;5.70;;;3.42;;
28724;SDS011;43472;48.980;9.646;2023-07-28T16:05:39;4.32;;;2.90;;
28724;SDS011;43472;48.980;9.646;2023-07-28T16:10:41;5.22;;;3.25;;
28724;SDS011;43472;48.980;9.646;2023-07-28T16:15:45;4.63;;;3.72;;
28724;SDS011;43472;48.980;9.646;2023-07-28T16:20:47;7.35;;;3.25;;
28724;SDS011;43472;48.980;9.646;2023-07-28T16:25:50;7.10;;;4.05;;
28724;SDS011;43472;48.980;9.646;2023-07-28T16:30:52;5.90;;;4.10;;
28724;SDS011;43472;48.980;9.646;2023-07-28T16:35:53;5.53;;;4.15;;
28724;SDS011;43472;48.980;9.646;2023-07-28T16:40:56;6.45;;;4.13;;
28724;SDS011;43472;48.980;9.646;2023-07-28T16:45:59;9.65;;;4.70;;
28724;SDS011;43472;48.980;9.646;2023-07-28T16:51:01;7.43;;;4.10;;
28724;SDS011;43472;48.980;9.646;2023-07-28T16:56:03;6.05;;;4.50;;
28724;SDS011;43472;48.980;9.646;2023-07-28T17:01:05;4.95;;;3.60;;
28724;SDS011;43472;48.980;9.646;2023-07-28T17:06:07;13.35;;;5.05;;
28724;SDS011;43472;48.980;9.646;2023-07-28T17:11:09;5.40;;;4.30;;
28724;SDS011;43472;48.980;9.646;2023-07-28T17:16:11;8.93;;;6.53;;
28724;SDS011;43472;48.980;9.646;2023-07-28T17:21:13;7.90;;;4.88;;
28724;SDS011;43472;48.980;9.646;2023-07-28T17:26:15;11.63;;;4.75;;
28724;SDS011;43472;48.980;9.646;2023-07-28T17:31:17;7.82;;;4.05;;
28724;SDS011;43472;48.980;9.646;2023-07-28T17:36:20;6.18;;;4.93;;
28724;SDS011;43472;48.980;9.646;2023-07-28T17:41:23;10.23;;;5.72;;
28724;SDS011;43472;48.980;9.646;2023-07-28T17:46:25;6.65;;;4.53;;
28724;SDS011;43472;48.980;9.646;2023-07-28T17:51:27;6.75;;;3.97;;
28724;SDS011;43472;48.980;9.646;2023-07-28T17:56:29;4.57;;;3.20;;
28724;SDS011;43472;48.980;9.646;2023-07-28T18:01:31;4.80;;;3.95;;
28724;SDS011;43472;48.980;9.646;2023-07-28T18:06:34;5.43;;;3.70;;
28724;SDS011;43472;48.980;9.646;2023-07-28T18:11:36;8.25;;;3.85;;
28724;SDS011;43472;48.980;9.646;2023-07-28T18:16:39;6.55;;;4.07;;
28724;SDS011;43472;48.980;9.646;2023-07-28T18:21:42;15.25;;;8.40;;
28724;SDS011;43472;48.980;9.646;2023-07-28T18:26:44;7.53;;;4.72;;
28724;SDS011;43472;48.980;9.646;2023-07-28T18:31:46;7.50;;;4.00;;
28724;SDS011;43472;48.980;9.646;2023-07-28T18:36:48;7.35;;;5.32;;
28724;SDS011;43472;48.980;9.646;2023-07-28T18:41:54;7.18;;;4.60;;
28724;SDS011;43472;48.980;9.646;2023-07-28T18:46:56;7.50;;;4.63;;
28724;SDS011;43472;48.980;9.646;2023-07-28T18:51:58;20.73;;;8.65;;
28724;SDS011;43472;48.980;9.646;2023-07-28T18:57:00;10.95;;;6.80;;
28724;SDS011;43472;48.980;9.646;2023-07-28T19:02:02;11.32;;;6.13;;
28724;SDS011;43472;48.980;9.646;2023-07-28T19:07:05;19.23;;;8.63;;
28724;SDS011;43472;48.980;9.646;2023-07-28T19:12:07;22.02;;;10.45;;
28724;SDS011;43472;48.980;9.646;2023-07-28T19:17:09;22.83;;;9.10;;
28724;SDS011;43472;48.980;9.646;2023-07-28T19:22:11;12.70;;;6.40;;
28724;SDS011;43472;48.980;9.646;2023-07-28T19:27:15;9.05;;;5.75;;
28724;SDS011;43472;48.980;9.646;2023-07-28T19:32:19;50.00;;;25.20;;
28724;SDS011;43472;48.980;9.646;2023-07-28T19:37:22;25.15;;;12.82;;
28724;SDS011;43472;48.980;9.646;2023-07-28T19:42:43;18.40;;;6.93;;
28724;SDS011;43472;48.980;9.646;2023-07-28T19:47:45;7.00;;;4.65;;
28724;SDS011;43472;48.980;9.646;2023-07-28T19:52:47;45.08;;;22.30;;
28724;SDS011;43472;48.980;9.646;2023-07-28T19:57:49;13.05;;;5.78;;
28724;SDS011;43472;48.980;9.646;2023-07-28T20:02:51;11.02;;;5.95;;
28724;SDS011;43472;48.980;9.646;2023-07-28T20:07:53;12.30;;;6.85;;
28724;SDS011;43472;48.980;9.646;2023-07-28T20:12:55;29.02;;;19.27;;
28724;SDS011;43472;48.980;9.646;2023-07-28T20:17:57;14.35;;;9.70;;
28724;SDS011;43472;48.980;9.646;2023-07-28T20:22:59;15.60;;;9.45;;
28724;SDS011;43472;48.980;9.646;2023-07-28T20:28:02;17.58;;;8.20;;
28724;SDS011;43472;48.980;9.646;2023-07-28T20:33:05;26.60;;;9.38;;
28724;SDS011;43472;48.980;9.646;2023-07-28T20:38:08;24.33;;;8.68;;
28724;SDS011;43472;48.980;9.646;2023-07-28T20:43:09;42.20;;;10.65;;
28724;SDS011;43472;48.980;9.646;2023-07-28T20:48:12;16.73;;;9.20;;
28724;SDS011;43472;48.980;9.646;2023-07-28T20:53:16;12.23;;;9.10;;
28724;SDS011;43472;48.980;9.646;2023-07-28T20:58:23;16.38;;;11.85;;
28724;SDS011;43472;48.980;9.646;2023-07-28T21:03:29;19.85;;;9.35;;
28724;SDS011;43472;48.980;9.646;2023-07-28T21:08:31;19.85;;;11.48;;
28724;SDS011;43472;48.980;9.646;2023-07-28T21:13:33;50.88;;;22.98;;
28724;SDS011;43472;48.980;9.646;2023-07-28T21:18:35;69.63;;;17.67;;
28724;SDS011;43472;48.980;9.646;2023-07-28T21:23:37;22.40;;;11.43;;
28724;SDS011;43472;48.980;9.646;2023-07-28T21:28:40;22.17;;;10.52;;
28724;SDS011;43472;48.980;9.646;2023-07-28T21:33:43;11.93;;;8.55;;
28724;SDS011;43472;48.980;9.646;2023-07-28T21:38:45;13.45;;;8.30;;
28724;SDS011;43472;48.980;9.646;2023-07-28T21:43:47;24.67;;;10.45;;
28724;SDS011;43472;48.980;9.646;2023-07-28T21:48:48;15.95;;;8.68;;
28724;SDS011;43472;48.980;9.646;2023-07-28T21:53:51;15.63;;;10.82;;
28724;SDS011;43472;48.980;9.646;2023-07-28T21:58:53;26.55;;;9.73;;
28724;SDS011;43472;48.980;9.646;2023-07-28T22:03:56;57.17;;;10.48;;
28724;SDS011;43472;48.980;9.646;2023-07-28T22:08:58;29.45;;;9.38;;
28724;SDS011;43472;48.980;9.646;2023-07-28T22:14:00;15.05;;;7.97;;
28724;SDS011;43472;48.980;9.646;2023-07-28T22:19:03;184.57;;;15.57;;
28724;SDS011;43472;48.980;9.646;2023-07-28T22:24:05;71.15;;;11.70;;
28724;SDS011;43472;48.980;9.646;2023-07-28T22:29:10;65.28;;;9.52;;
28724;SDS011;43472;48.980;9.646;2023-07-28T22:34:13;12.85;;;6.70;;
28724;SDS011;43472;48.980;9.646;2023-07-28T22:39:15;13.13;;;7.25;;
28724;SDS011;43472;48.980;9.646;2023-07-28T22:44:18;16.52;;;7.85;;
28724;SDS011;43472;48.980;9.646;2023-07-28T22:49:20;31.77;;;8.50;;
28724;SDS011;43472;48.980;9.646;2023-07-28T22:54:22;12.27;;;7.72;;
28724;SDS011;43472;48.980;9.646;2023-07-28T22:59:24;22.20;;;7.72;;
28724;SDS011;43472;48.980;9.646;2023-07-28T23:04:26;14.75;;;7.13;;
28724;SDS011;43472;48.980;9.646;2023-07-28T23:09:28;10.88;;;6.43;;
28724;SDS011;43472;48.980;9.646;2023-07-28T23:14:32;13.25;;;7.68;;
28724;SDS011;43472;48.980;9.646;2023-07-28T23:19:34;47.15;;;9.15;;
28724;SDS011;43472;48.980;9.646;2023-07-28T23:24:36;74.18;;;9.13;;
28724;SDS011;43472;48.980;9.646;2023-07-28T23:29:38;15.88;;;7.05;;
28724;SDS011;43472;48.980;9.646;2023-07-28T23:34:40;12.23;;;7.50;;
28724;SDS011;43472;48.980;9.646;2023-07-28T23:39:42;10.68;;;6.93;;
28724;SDS011;43472;48.980;9.646;2023-07-28T23:44:44;10.85;;;6.88;;
28724;SDS011;43472;48.980;9.646;2023-07-28T23:49:46;12.27;;;6.10;;
28724;SDS011;43472;48.980;9.646;2023-07-28T23:54:48;10.38;;;6.65;;
28724;SDS011;43472;48.980;9.646;2023-07-28T23:59:51;9.50;;;5.90;;
